Time;durP1;ratioP1;P1;durP2;ratioP2;P2;SDS_P1;SDS_P2;PMS_P1;PMS_P2;Temp;Humidity;BMP_temperature;BMP_pressure;BME280_temperature;BME280_humidity;BME280_pressure;Samples;Min_cycle;Max_cycle;Signal;HPM_P1;HPM_P2
2022/02/25 00:01:10;;;;;;;;;;;;;;;4.23;100.00;98648.66;5093349;28;20014;-77
2022/02/25 00:03:37;;;;;;;;;;;;;;;4.35;100.00;98651.84;5093622;28;20340;-78
2022/02/25 00:06:04;;;;;;;;;;;;;;;4.41;100.00;98672.41;5075879;28;20371;-77
2022/02/25 00:08:33;;;;;;;;;;;;;;;4.77;100.00;98685.09;5093496;28;19955;-78
2022/02/25 00:11:00;;;;;;;;;;;;;;;4.57;100.00;98697.75;5092248;28;19924;-78
2022/02/25 00:13:27;;;;;;;;;;;;;;;4.52;100.00;98695.34;5093235;28;19932;-78
2022/02/25 00:15:57;;;;;;;;;;;;;;;4.69;100.00;98702.09;5074259;28;19971;-78
2022/02/25 00:18:26;;;;;;;;;;;;;;;4.80;100.00;98706.47;5093385;28;19924;-78
2022/02/25 00:20:53;;;;;;;;;;;;;;;4.81;100.00;98697.00;5093555;28;19935;-78
2022/02/25 00:23:20;;;;;;;;;;;;;;;4.75;100.00;98723.47;5093410;28;19970;-78
2022/02/25 00:25:49;;;;;;;;;;;;;;;5.02;100.00;98723.88;5093509;28;19924;-78
2022/02/25 00:28:16;;;;;;;;;;;;;;;4.90;100.00;98725.06;5075110;28;20352;-78
2022/02/25 00:30:43;;;;;;;;;;;;;;;4.81;100.00;98708.06;5075488;28;19928;-78
2022/02/25 00:33:11;;;;;;;;;;;;;;;4.93;100.00;98729.81;5075511;28;19924;-78
2022/02/25 00:35:39;;;;;;;;;;;;;;;4.90;100.00;98725.06;5093355;28;19924;-78
2022/02/25 00:38:06;;;;;;;;;;;;;;;4.96;100.00;98723.50;5093444;28;19924;-78
2022/02/25 00:40:33;;;;;;;;;;;;;;;4.89;100.00;98737.31;5109145;28;19935;-78
2022/02/25 00:43:00;;;;;;;;;;;;;;;5.04;100.00;98736.13;5093083;28;19971;-78
2022/02/25 00:45:27;;;;;;;;;;;;;;;4.98;100.00;98751.56;5095781;28;19928;-78
2022/02/25 00:47:55;;;;;;;;;;;;;;;5.14;100.00;98753.97;5096753;28;19932;-78
2022/02/25 00:50:22;;;;;;;;;;;;;;;5.12;100.00;98756.31;5096849;28;20355;-78
2022/02/25 00:52:49;;;;;;;;;;;;;;;5.01;100.00;98772.94;5096852;28;19924;-78
2022/02/25 00:55:19;;;;;;;;;;;;;;;4.89;100.00;98748.38;5103578;28;20315;-78
2022/02/25 00:57:50;;;;;;;;;;;;;;;5.16;100.00;98757.13;5087657;28;19924;-78
2022/02/25 01:00:21;;;;;;;;;;;;;;;5.45;100.00;98776.13;5079040;28;19960;-78
2022/02/25 01:02:49;;;;;;;;;;;;;;;5.41;100.00;98767.03;5078609;28;19931;-78
2022/02/25 01:05:16;;;;;;;;;;;;;;;5.32;100.00;98766.63;5078396;28;19931;-78
2022/02/25 01:07:46;;;;;;;;;;;;;;;5.20;100.00;98774.53;5096303;28;19970;-78
2022/02/25 01:10:17;;;;;;;;;;;;;;;5.41;100.00;98774.53;5096251;28;19963;-78
2022/02/25 01:12:45;;;;;;;;;;;;;;;5.31;100.00;98775.34;5096315;28;19932;-78
2022/02/25 01:15:13;;;;;;;;;;;;;;;4.78;100.00;98772.50;5091190;28;20406;-77
2022/02/25 01:17:40;;;;;;;;;;;;;;;5.24;100.00;98778.88;5074484;28;19967;-78
2022/02/25 01:20:09;;;;;;;;;;;;;;;5.13;100.00;98772.56;5077512;28;20008;-78
2022/02/25 01:22:37;;;;;;;;;;;;;;;5.12;100.00;98795.91;5076283;28;19924;-78
2022/02/25 01:25:04;;;;;;;;;;;;;;;5.04;100.00;98808.13;5057737;28;19924;-78
2022/02/25 01:27:32;;;;;;;;;;;;;;;5.18;100.00;98810.94;5058009;28;20395;-78
2022/02/25 01:29:59;;;;;;;;;;;;;;;5.40;100.00;98812.56;5092731;28;20019;-78
2022/02/25 01:32:26;;;;;;;;;;;;;;;5.14;100.00;98840.63;5095865;28;19924;-78
2022/02/25 01:34:54;;;;;;;;;;;;;;;5.33;100.00;98831.94;5077846;28;19934;-78
2022/02/25 01:37:24;;;;;;;;;;;;;;;5.16;100.00;98829.94;5095835;28;19927;-78
2022/02/25 01:39:51;;;;;;;;;;;;;;;5.58;100.00;98831.94;5095913;28;19931;-78
2022/02/25 01:42:19;;;;;;;;;;;;;;;5.21;100.00;98815.69;5090213;28;19993;-78
2022/02/25 01:44:46;;;;;;;;;;;;;;;5.44;100.00;98829.16;5075313;28;20376;-78
2022/02/25 01:47:14;;;;;;;;;;;;;;;5.48;100.00;98807.81;5075228;28;19928;-78
2022/02/25 01:49:42;;;;;;;;;;;;;;;5.41;100.00;98827.19;5090970;28;19931;-78
2022/02/25 01:52:16;;;;;;;;;;;;;;;5.22;100.00;98839.44;5040852;28;19931;-78
2022/02/25 01:54:44;;;;;;;;;;;;;;;5.37;100.00;98841.06;5074877;28;19977;-78
2022/02/25 01:57:13;;;;;;;;;;;;;;;5.47;100.00;98854.13;5040980;28;19924;-78
2022/02/25 01:59:41;;;;;;;;;;;;;;;5.37;100.00;98857.69;5072915;28;20295;-78
2022/02/25 02:02:08;;;;;;;;;;;;;;;5.36;100.00;98855.31;5075099;28;20044;-78
2022/02/25 02:04:36;;;;;;;;;;;;;;;5.49;100.00;98854.53;5057202;28;19925;-78
2022/02/25 02:07:04;;;;;;;;;;;;;;;5.27;100.00;98852.91;5057377;28;20660;-78
2022/02/25 02:09:31;;;;;;;;;;;;;;;5.52;100.00;98858.47;5074602;28;19932;-78
2022/02/25 02:11:58;;;;;;;;;;;;;;;5.46;100.00;98838.69;5074894;28;19924;-78
2022/02/25 02:14:26;;;;;;;;;;;;;;;5.67;100.00;98870.34;5056611;28;19924;-78
2022/02/25 02:16:57;;;;;;;;;;;;;;;5.63;100.00;98867.59;5074912;28;20005;-78
2022/02/25 02:19:25;;;;;;;;;;;;;;;5.77;100.00;98858.47;5094623;28;19924;-78
2022/02/25 02:21:54;;;;;;;;;;;;;;;5.59;100.00;98855.69;5076712;28;19981;-78
2022/02/25 02:24:22;;;;;;;;;;;;;;;5.45;100.00;98867.56;5076706;28;19925;-78
2022/02/25 02:26:50;;;;;;;;;;;;;;;5.74;100.00;98864.81;5094931;28;20409;-78
2022/02/25 02:29:18;;;;;;;;;;;;;;;5.75;100.00;98883.03;5076713;28;20363;-78
2022/02/25 02:31:45;;;;;;;;;;;;;;;5.65;100.00;98889.38;5076711;28;20555;-78
2022/02/25 02:34:13;;;;;;;;;;;;;;;5.44;100.00;98903.97;5076611;28;19931;-78
2022/02/25 02:36:40;;;;;;;;;;;;;;;5.54;100.00;98898.44;5076712;28;19930;-78
2022/02/25 02:39:11;;;;;;;;;;;;;;;5.85;100.00;98908.00;5076803;28;19969;-78
2022/02/25 02:41:39;;;;;;;;;;;;;;;5.45;100.00;98903.59;5076526;28;19924;-78
2022/02/25 02:44:06;;;;;;;;;;;;;;;5.57;100.00;98917.06;5094371;28;20351;-78
2022/02/25 02:46:34;;;;;;;;;;;;;;;5.51;100.00;98912.31;5094219;28;19928;-78
2022/02/25 02:49:03;;;;;;;;;;;;;;;5.53;100.00;98916.28;5094033;28;19977;-78
2022/02/25 02:51:30;;;;;;;;;;;;;;;5.53;100.00;98909.94;5059424;28;19935;-78
2022/02/25 02:53:57;;;;;;;;;;;;;;;5.67;100.00;98915.50;5094031;28;20260;-78
2022/02/25 02:56:24;;;;;;;;;;;;;;;5.60;100.00;98923.81;5093717;28;19935;-78
2022/02/25 02:58:55;;;;;;;;;;;;;;;5.57;100.00;98917.06;5093963;28;19924;-78
2022/02/25 03:01:26;;;;;;;;;;;;;;;5.32;100.00;98919.00;5094400;28;20264;-78
2022/02/25 03:03:53;;;;;;;;;;;;;;;5.27;100.00;98924.91;5076087;28;19923;-78
2022/02/25 03:06:22;;;;;;;;;;;;;;;5.41;100.00;98949.09;5093739;28;19924;-78
2022/02/25 03:08:51;;;;;;;;;;;;;;;5.48;100.00;98947.13;5109070;28;20375;-78
2022/02/25 03:11:21;;;;;;;;;;;;;;;5.49;100.00;98948.75;5094282;28;20257;-78
2022/02/25 03:13:52;;;;;;;;;;;;;;;5.39;100.00;98960.56;5109667;28;19924;-78
2022/02/25 03:16:22;;;;;;;;;;;;;;;5.31;100.00;98963.72;5094017;28;19931;-78
2022/02/25 03:18:50;;;;;;;;;;;;;;;5.30;100.00;98960.16;5109844;28;19924;-78
2022/02/25 03:21:19;;;;;;;;;;;;;;;5.32;100.00;98966.09;5093935;28;19924;-78
2022/02/25 03:23:46;;;;;;;;;;;;;;;5.23;100.00;98971.22;5093902;28;19924;-78
2022/02/25 03:26:13;;;;;;;;;;;;;;;5.34;100.00;98957.41;5094003;28;19924;-78
2022/02/25 03:28:40;;;;;;;;;;;;;;;5.37;100.00;98979.59;5093958;28;19924;-78
2022/02/25 03:31:07;;;;;;;;;;;;;;;5.37;100.00;98979.59;5093816;28;20307;-78
2022/02/25 03:33:34;;;;;;;;;;;;;;;5.18;100.00;98982.66;5075869;28;19928;-78
2022/02/25 03:36:03;;;;;;;;;;;;;;;5.28;100.00;98981.94;5075833;28;19970;-77
2022/02/25 03:38:30;;;;;;;;;;;;;;;5.40;100.00;98989.09;5075386;28;19931;-78
2022/02/25 03:40:57;;;;;;;;;;;;;;;5.61;100.00;99003.00;5093729;28;19924;-77
2022/02/25 03:43:24;;;;;;;;;;;;;;;5.47;100.00;98992.66;5075814;28;19928;-78
2022/02/25 03:45:52;;;;;;;;;;;;;;;5.46;100.00;99016.03;5075904;28;20264;-78
2022/02/25 03:48:20;;;;;;;;;;;;;;;5.27;100.00;99002.50;5065309;28;19930;-78
2022/02/25 03:50:47;;;;;;;;;;;;;;;5.34;100.00;99002.53;5075292;28;19924;-78
2022/02/25 03:53:14;;;;;;;;;;;;;;;5.41;100.00;99012.81;5093571;28;19928;-78
2022/02/25 03:55:41;;;;;;;;;;;;;;;5.42;100.00;99020.75;5075393;28;19924;-78
2022/02/25 03:58:08;;;;;;;;;;;;;;;5.56;100.00;99045.75;5093532;28;19924;-77
2022/02/25 04:00:37;;;;;;;;;;;;;;;5.42;100.00;99019.97;5093603;28;19932;-78
2022/02/25 04:03:04;;;;;;;;;;;;;;;5.47;100.00;99033.44;5093402;28;19928;-78
2022/02/25 04:05:31;;;;;;;;;;;;;;;5.31;100.00;99050.41;5075415;28;19924;-77
2022/02/25 04:07:58;;;;;;;;;;;;;;;5.38;100.00;99039.34;5075767;28;19931;-77
2022/02/25 04:10:25;;;;;;;;;;;;;;;5.44;100.00;99040.56;5059145;28;20322;-77
2022/02/25 04:13:01;;;;;;;;;;;;;;;5.38;100.00;99036.56;5076877;28;19931;-77
2022/02/25 04:15:29;;;;;;;;;;;;;;;5.62;100.00;99053.69;5093524;28;20015;-78
2022/02/25 04:17:57;;;;;;;;;;;;;;;5.45;100.00;99050.44;5093889;28;19989;-78
2022/02/25 04:20:24;;;;;;;;;;;;;;;5.48;100.00;99049.66;5079362;28;19932;-78
2022/02/25 04:22:52;;;;;;;;;;;;;;;5.58;100.00;99064.75;5097609;28;19924;-77
2022/02/25 04:25:19;;;;;;;;;;;;;;;5.66;100.00;99068.34;5045950;28;19949;-77
2022/02/25 04:27:46;;;;;;;;;;;;;;;5.36;100.00;99077.72;5097318;28;19924;-77
2022/02/25 04:30:15;;;;;;;;;;;;;;;5.56;100.00;99058.81;5079592;28;19928;-78
2022/02/25 04:32:42;;;;;;;;;;;;;;;5.66;100.00;99079.44;5062516;28;19924;-78
2022/02/25 04:35:09;;;;;;;;;;;;;;;5.43;100.00;99077.78;5062257;28;19924;-77
2022/02/25 04:37:36;;;;;;;;;;;;;;;5.68;100.00;99088.94;5097023;28;19931;-77
2022/02/25 04:40:04;;;;;;;;;;;;;;;5.48;100.00;99101.56;5096864;28;20010;-78
2022/02/25 04:42:32;;;;;;;;;;;;;;;5.47;100.00;99106.28;5097002;28;19930;-78
2022/02/25 04:44:59;;;;;;;;;;;;;;;5.56;100.00;99103.97;5096943;28;20019;-78
2022/02/25 04:47:26;;;;;;;;;;;;;;;5.84;100.00;99119.94;5096948;28;19930;-78
2022/02/25 04:49:53;;;;;;;;;;;;;;;5.77;100.00;99127.41;5096749;28;19924;-77
2022/02/25 04:52:21;;;;;;;;;;;;;;;5.45;100.00;99114.19;5097001;28;19924;-78
2022/02/25 04:54:48;;;;;;;;;;;;;;;5.72;100.00;99122.22;5096934;28;19924;-78
2022/02/25 04:57:16;;;;;;;;;;;;;;;5.68;100.00;99143.63;5078781;28;20023;-78
2022/02/25 04:59:45;;;;;;;;;;;;;;;5.71;100.00;99132.53;5078665;28;20009;-78
2022/02/25 05:02:12;;;;;;;;;;;;;;;5.69;100.00;99145.19;5078603;28;19924;-78
2022/02/25 05:04:40;;;;;;;;;;;;;;;5.28;100.00;99128.75;5078626;28;20011;-77
2022/02/25 05:07:07;;;;;;;;;;;;;;;5.65;100.00;99144.38;5078619;28;19928;-78
2022/02/25 05:09:35;;;;;;;;;;;;;;;6.04;100.00;99145.38;5096460;28;19936;-78
2022/02/25 05:12:03;;;;;;;;;;;;;;;5.60;100.00;99160.19;5078474;28;19924;-78
2022/02/25 05:20:23;;;;;;;;;;;;;;;5.78;100.00;99151.16;5096375;28;19924;-78
2022/02/25 05:22:52;;;;;;;;;;;;;;;5.63;100.00;99168.91;5078084;28;19963;-78
2022/02/25 05:25:21;;;;;;;;;;;;;;;6.08;100.00;99160.03;5044697;28;20394;-78
2022/02/25 05:27:49;;;;;;;;;;;;;;;5.87;100.00;99159.97;5078329;28;19924;-78
2022/02/25 05:30:17;;;;;;;;;;;;;;;5.57;100.00;99171.28;5077340;28;19989;-78
2022/02/25 05:32:45;;;;;;;;;;;;;;;5.89;100.00;99175.03;5060024;28;20287;-78
2022/02/25 05:35:12;;;;;;;;;;;;;;;5.46;100.00;99149.06;5095024;28;20363;-78
2022/02/25 05:37:41;;;;;;;;;;;;;;;5.42;100.00;99178.69;5056693;28;20364;-78
2022/02/25 05:40:09;;;;;;;;;;;;;;;5.45;100.00;99160.53;5057775;28;19925;-77
2022/02/25 05:42:38;;;;;;;;;;;;;;;5.82;100.00;99182.50;5057868;28;20011;-78
2022/02/25 05:45:06;;;;;;;;;;;;;;;5.52;100.00;99168.88;5075525;28;20314;-78
2022/02/25 05:47:34;;;;;;;;;;;;;;;5.51;100.00;99172.84;5057501;28;20291;-78
2022/02/25 05:50:03;;;;;;;;;;;;;;;5.63;100.00;99159.41;5075489;28;19924;-78
2022/02/25 05:52:30;;;;;;;;;;;;;;;5.58;100.00;99162.56;5057385;28;19931;-78
2022/02/25 05:54:57;;;;;;;;;;;;;;;5.73;100.00;99170.94;5075376;28;20299;-78
2022/02/25 05:57:24;;;;;;;;;;;;;;;5.71;100.00;99171.34;5090970;28;19924;-78
2022/02/25 05:59:53;;;;;;;;;;;;;;;5.62;100.00;99159.03;5075277;28;19952;-77
2022/02/25 06:02:22;;;;;;;;;;;;;;;5.88;100.00;99192.84;5074944;28;19925;-78
2022/02/25 06:04:50;;;;;;;;;;;;;;;5.51;100.00;99212.41;5074981;28;19928;-78
2022/02/25 06:07:17;;;;;;;;;;;;;;;5.66;100.00;99218.84;5074970;28;19971;-78
2022/02/25 06:09:44;;;;;;;;;;;;;;;5.52;100.00;99246.47;5057162;28;20339;-78
2022/02/25 06:12:11;;;;;;;;;;;;;;;5.49;100.00;99228.66;5057267;28;19925;-78
2022/02/25 06:14:38;;;;;;;;;;;;;;;5.61;100.00;99246.94;5074634;28;19948;-77
2022/02/25 06:17:07;;;;;;;;;;;;;;;5.86;100.00;99258.22;5074888;28;19929;-78
2022/02/25 06:19:35;;;;;;;;;;;;;;;5.75;100.00;99262.84;5057215;28;20386;-78
2022/02/25 06:22:03;;;;;;;;;;;;;;;5.73;100.00;99273.53;5056817;28;19931;-78
2022/02/25 06:24:30;;;;;;;;;;;;;;;5.62;100.00;99269.91;5074594;28;19924;-78
2022/02/25 06:26:57;;;;;;;;;;;;;;;5.71;100.00;99278.69;5056912;28;19931;-78
2022/02/25 06:29:24;;;;;;;;;;;;;;;5.89;100.00;99260.22;5074454;28;19959;-78
2022/02/25 06:31:52;;;;;;;;;;;;;;;5.81;100.00;99277.94;5079124;28;19924;-78
2022/02/25 06:34:19;;;;;;;;;;;;;;;5.70;100.00;99280.66;5094777;28;20436;-78
2022/02/25 06:36:46;;;;;;;;;;;;;;;5.78;100.00;99284.25;5059933;28;19924;-78
2022/02/25 06:39:13;;;;;;;;;;;;;;;5.65;100.00;99294.09;5094640;28;19924;-78
2022/02/25 06:41:40;;;;;;;;;;;;;;;6.12;100.00;99307.88;5076565;28;19978;-78
2022/02/25 06:44:08;;;;;;;;;;;;;;;5.89;100.00;99324.78;5094330;28;19924;-78
2022/02/25 06:46:35;;;;;;;;;;;;;;;5.80;100.00;99321.50;5043421;28;19928;-78
2022/02/25 06:49:03;;;;;;;;;;;;;;;5.70;100.00;99335.28;5043379;28;19931;-78
2022/02/25 06:51:30;;;;;;;;;;;;;;;5.62;100.00;99336.44;5058851;28;19924;-78
2022/02/25 06:53:58;;;;;;;;;;;;;;;5.91;100.00;99346.59;5089565;28;20383;-78
2022/02/25 06:56:25;;;;;;;;;;;;;;;5.69;100.00;99350.34;5094324;28;20375;-78
2022/02/25 06:58:52;;;;;;;;;;;;;;;5.62;100.00;99355.84;5094137;28;20371;-78
2022/02/25 07:01:20;;;;;;;;;;;;;;;5.73;100.00;99376.13;5093850;28;19931;-78
2022/02/25 07:03:47;;;;;;;;;;;;;;;5.74;100.00;99375.72;5094252;28;19924;-78
2022/02/25 07:06:14;;;;;;;;;;;;;;;5.93;100.00;99378.31;5074585;28;19924;-78
2022/02/25 07:08:43;;;;;;;;;;;;;;;5.54;100.00;99377.94;5056268;28;20247;-77
2022/02/25 07:11:11;;;;;;;;;;;;;;;5.56;100.00;99391.41;5056271;28;19931;-74
2022/02/25 07:13:38;;;;;;;;;;;;;;;5.85;100.00;99411.88;5056026;28;20011;-76
2022/02/25 07:16:05;;;;;;;;;;;;;;;5.90;100.00;99422.63;5073490;28;20382;-76
2022/02/25 07:18:33;;;;;;;;;;;;;;;5.83;100.00;99434.47;5073476;28;20380;-76
2022/02/25 07:21:00;;;;;;;;;;;;;;;5.89;100.00;99423.81;5099137;28;19924;-77
2022/02/25 07:23:28;;;;;;;;;;;;;;;5.71;100.00;99454.13;5093064;28;20312;-77
2022/02/25 07:25:55;;;;;;;;;;;;;;;5.87;100.00;99451.13;5075253;28;19934;-77
2022/02/25 07:28:22;;;;;;;;;;;;;;;5.92;100.00;99457.16;5075044;28;20031;-76
2022/02/25 07:30:49;;;;;;;;;;;;;;;5.65;100.00;99477.06;5093808;28;20295;-76
2022/02/25 07:33:19;;;;;;;;;;;;;;;5.91;100.00;99465.84;5108886;28;19978;-76
2022/02/25 07:35:47;;;;;;;;;;;;;;;5.82;100.00;99476.44;5093576;28;19977;-76
2022/02/25 07:38:14;;;;;;;;;;;;;;;5.94;100.00;99490.81;5089289;28;19970;-76
2022/02/25 07:40:41;;;;;;;;;;;;;;;6.04;100.00;99504.00;5077834;28;19955;-76
2022/02/25 07:43:10;;;;;;;;;;;;;;;5.92;100.00;99509.03;5093137;28;19963;-76
2022/02/25 07:45:37;;;;;;;;;;;;;;;5.76;100.00;99497.34;5067360;28;19978;-76
2022/02/25 07:48:05;;;;;;;;;;;;;;;6.00;100.00;99497.63;5072116;28;20526;-76
2022/02/25 07:50:32;;;;;;;;;;;;;;;5.95;100.00;99499.97;5055164;28;20373;-77
2022/02/25 07:52:59;;;;;;;;;;;;;;;5.95;100.00;99519.38;5090239;28;19925;-76
2022/02/25 07:55:27;;;;;;;;;;;;;;;6.17;100.00;99515.59;5042836;28;20401;-76
2022/02/25 07:58:01;;;;;;;;;;;;;;;5.90;100.00;99528.03;5077120;28;19959;-76
2022/02/25 08:00:29;;;;;;;;;;;;;;;6.03;100.00;99532.13;5059240;28;19967;-76
2022/02/25 08:02:56;;;;;;;;;;;;;;;5.88;100.00;99524.88;5077151;28;20383;-76
2022/02/25 08:05:24;;;;;;;;;;;;;;;6.21;100.00;99538.66;5077145;28;20436;-76
2022/02/25 08:07:51;;;;;;;;;;;;;;;5.92;100.00;99522.91;5077006;28;20407;-77
2022/02/25 08:10:18;;;;;;;;;;;;;;;6.01;100.00;99551.13;5077286;28;19925;-76
2022/02/25 08:12:46;;;;;;;;;;;;;;;6.23;100.00;99569.56;5076930;28;20311;-75
2022/02/25 08:15:15;;;;;;;;;;;;;;;6.28;100.00;99580.31;5075139;28;19963;-75
2022/02/25 08:17:42;;;;;;;;;;;;;;;6.23;100.00;99580.66;5058688;28;19931;-75
2022/02/25 08:20:10;;;;;;;;;;;;;;;6.26;100.00;99571.56;5059154;28;20303;-75
2022/02/25 08:22:37;;;;;;;;;;;;;;;6.33;100.00;99579.97;5059028;28;19931;-75
2022/02/25 08:25:04;;;;;;;;;;;;;;;5.92;100.00;99579.19;5084876;28;20389;-75
2022/02/25 08:27:32;;;;;;;;;;;;;;;6.35;100.00;99586.72;5068257;28;20015;-75
2022/02/25 08:29:59;;;;;;;;;;;;;;;6.22;100.00;99581.84;5060071;28;19924;-76
2022/02/25 08:32:26;;;;;;;;;;;;;;;6.20;100.00;99595.31;5077302;28;19928;-75
2022/02/25 08:34:53;;;;;;;;;;;;;;;6.39;100.00;99595.09;5082391;28;19981;-76
2022/02/25 08:37:20;;;;;;;;;;;;;;;6.34;100.00;99604.56;5097085;28;20399;-76
2022/02/25 08:39:47;;;;;;;;;;;;;;;6.57;100.00;99596.81;5097038;28;20272;-77
2022/02/25 08:42:15;;;;;;;;;;;;;;;6.31;100.00;99598.97;5096983;28;20383;-75
2022/02/25 08:44:45;;;;;;;;;;;;;;;6.62;100.00;99604.81;5096856;28;19977;-76
2022/02/25 08:47:12;;;;;;;;;;;;;;;6.75;100.00;99608.91;5096732;28;19924;-77
2022/02/25 08:49:40;;;;;;;;;;;;;;;6.47;100.00;99613.41;5078831;28;19924;-76
2022/02/25 08:52:10;;;;;;;;;;;;;;;6.52;100.00;99613.06;5062014;28;19928;-77
2022/02/25 08:54:38;;;;;;;;;;;;;;;6.53;100.00;99622.97;5088399;28;19924;-76
2022/02/25 08:57:06;;;;;;;;;;;;;;;6.54;100.00;99621.81;5071604;28;20338;-76
2022/02/25 08:59:35;;;;;;;;;;;;;;;6.40;100.00;99628.03;5079627;28;19924;-76
2022/02/25 09:02:04;;;;;;;;;;;;;;;6.40;100.00;99624.44;5076327;28;20311;-76
2022/02/25 09:04:31;;;;;;;;;;;;;;;6.63;100.00;99647.28;5087943;28;19924;-76
2022/02/25 09:06:58;;;;;;;;;;;;;;;6.42;100.00;99631.19;5060765;28;20069;-76
2022/02/25 09:09:25;;;;;;;;;;;;;;;6.52;100.00;99633.28;5091548;28;20379;-76
2022/02/25 09:11:52;;;;;;;;;;;;;;;6.98;100.00;99633.69;5092393;28;19924;-76
2022/02/25 09:14:20;;;;;;;;;;;;;;;6.74;100.00;99650.94;5076492;28;19928;-76
2022/02/25 09:16:57;;;;;;;;;;;;;;;6.46;100.00;99659.00;5084632;28;19989;-75
2022/02/25 09:19:25;;;;;;;;;;;;;;;6.73;100.00;99661.25;5092741;28;19924;-77
2022/02/25 09:21:53;;;;;;;;;;;;;;;6.49;100.00;99658.25;5093009;28;19947;-73
2022/02/25 09:24:21;;;;;;;;;;;;;;;6.75;100.00;99670.00;5057536;28;20014;-78
2022/02/25 09:26:48;;;;;;;;;;;;;;;6.66;100.00;99682.59;5058058;28;19928;-78
2022/02/25 09:29:16;;;;;;;;;;;;;;;6.67;100.00;99693.34;5093025;28;19956;-77
2022/02/25 09:31:43;;;;;;;;;;;;;;;6.55;100.00;99684.47;5092077;28;20019;-74
2022/02/25 09:34:10;;;;;;;;;;;;;;;6.72;100.00;99681.06;5092689;28;19947;-77
2022/02/25 09:36:37;;;;;;;;;;;;;;;6.54;100.00;99682.88;5092502;28;20018;-76
2022/02/25 09:39:04;;;;;;;;;;;;;;;6.77;100.00;99700.19;5091823;28;19931;-75
2022/02/25 09:41:35;;;;;;;;;;;;;;;6.62;100.00;99687.34;5074601;28;19931;-78
2022/02/25 09:44:02;;;;;;;;;;;;;;;6.64;100.00;99701.63;5057897;28;20654;-77
2022/02/25 09:46:30;;;;;;;;;;;;;;;6.68;100.00;99699.69;5057244;28;20011;-77
2022/02/25 09:48:59;;;;;;;;;;;;;;;6.75;100.00;99702.53;5072659;28;19977;-78
2022/02/25 09:51:27;;;;;;;;;;;;;;;6.77;100.00;99706.50;5064470;28;19924;-77
2022/02/25 09:53:54;;;;;;;;;;;;;;;6.78;100.00;99701.75;5084938;28;19932;-76
2022/02/25 09:56:25;;;;;;;;;;;;;;;6.98;100.00;99717.81;5094327;28;19976;-75
2022/02/25 10:08:48;;;;;;;;;;;;;;;7.28;100.00;99737.91;4953838;28;19933;-74
2022/02/25 10:11:16;;;;;;;;;;;;;;;7.36;100.00;99733.22;4982006;28;19925;-74
2022/02/25 10:13:43;;;;;;;;;;;;;;;7.51;100.00;99751.59;5014066;28;19964;-74
2022/02/25 10:16:25;;;;;;;;;;;;;;;7.38;100.00;99742.75;5014319;28;19952;-75
2022/02/25 10:18:59;;;;;;;;;;;;;;;7.33;100.00;99751.44;5040641;28;19964;-73
2022/02/25 10:21:27;;;;;;;;;;;;;;;7.51;100.00;99756.34;5031960;28;20469;-73
2022/02/25 10:23:54;;;;;;;;;;;;;;;7.42;100.00;99751.13;5029403;28;19948;-73
2022/02/25 10:26:25;;;;;;;;;;;;;;;7.23;100.00;99762.50;5031948;28;20019;-73
2022/02/25 10:28:54;;;;;;;;;;;;;;;7.24;100.00;99764.06;5014485;28;20431;-73
2022/02/25 10:31:24;;;;;;;;;;;;;;;7.33;100.00;99772.88;5031602;28;19925;-74
2022/02/25 10:38:35;;;;;;;;;;;;;;;7.39;100.00;99790.84;4992255;28;19956;-74
2022/02/25 10:41:04;;;;;;;;;;;;;;;7.54;100.00;99788.94;4960788;28;20369;-74
2022/02/25 10:43:31;;;;;;;;;;;;;;;7.30;100.00;99791.13;4993190;28;19932;-74
2022/02/25 10:46:03;;;;;;;;;;;;;;;7.46;100.00;99803.97;4995945;28;19925;-74
2022/02/25 10:48:32;;;;;;;;;;;;;;;7.56;100.00;99809.63;5011653;28;19995;-74
2022/02/25 10:51:00;;;;;;;;;;;;;;;7.62;100.00;99813.63;5012059;28;19932;-73
2022/02/25 10:53:27;;;;;;;;;;;;;;;7.71;100.00;99805.75;5012038;28;19930;-74
2022/02/25 10:56:04;;;;;;;;;;;;;;;7.94;100.00;99813.84;5011866;28;19926;-74
2022/02/25 10:58:49;;;;;;;;;;;;;;;8.00;100.00;99820.66;5007574;28;19925;-74
2022/02/25 11:01:23;;;;;;;;;;;;;;;8.07;100.00;99806.78;5003113;28;19962;-73
2022/02/25 11:03:58;;;;;;;;;;;;;;;8.45;100.00;99818.16;4992842;28;19965;-74
2022/02/25 11:06:25;;;;;;;;;;;;;;;8.46;100.00;99818.94;5011148;28;19961;-74
2022/02/25 11:08:56;;;;;;;;;;;;;;;8.26;100.00;99832.38;5011356;28;19936;-74
2022/02/25 11:11:25;;;;;;;;;;;;;;;8.39;100.00;99842.00;4982533;28;19925;-74
2022/02/25 11:13:52;;;;;;;;;;;;;;;8.25;100.00;99841.94;5069251;28;20300;-74
2022/02/25 11:16:20;;;;;;;;;;;;;;;7.78;100.00;99843.97;5052650;28;20328;-74
2022/02/25 11:19:20;;;;;;;;;;;;;;;7.81;100.00;99849.56;5052490;28;19925;-74
2022/02/25 11:21:55;;;;;;;;;;;;;;;7.75;100.00;99848.34;5098907;28;19925;-74
2022/02/25 11:24:23;;;;;;;;;;;;;;;7.73;100.00;99822.88;5066840;28;19998;-73
2022/02/25 11:26:56;;;;;;;;;;;;;;;8.01;100.00;99862.00;5062167;28;20015;-74
2022/02/25 11:29:33;;;;;;;;;;;;;;;8.22;100.00;99848.28;5070974;28;20009;-74
2022/02/25 11:32:14;;;;;;;;;;;;;;;8.19;100.00;99854.59;5070329;28;19925;-73
2022/02/25 11:34:43;;;;;;;;;;;;;;;8.17;100.00;99875.66;5073136;28;19924;-73
2022/02/25 11:37:47;;;;;;;;;;;;;;;8.49;100.00;99877.47;5067457;28;19931;-74
2022/02/25 11:40:50;;;;;;;;;;;;;;;8.58;100.00;99883.47;5070896;28;19925;-74
2022/02/25 11:43:30;;;;;;;;;;;;;;;8.10;100.00;99884.75;5070040;28;19977;-74
2022/02/25 11:45:58;;;;;;;;;;;;;;;8.25;100.00;99886.47;5073244;28;19928;-73
2022/02/25 11:48:55;;;;;;;;;;;;;;;8.07;100.00;99887.50;5072545;28;20013;-74
2022/02/25 11:51:41;;;;;;;;;;;;;;;8.22;100.00;99887.25;5070961;28;19928;-74
2022/02/25 11:54:21;;;;;;;;;;;;;;;8.33;100.00;99899.25;5072255;28;19956;-74
2022/02/25 11:56:56;;;;;;;;;;;;;;;8.30;100.00;99900.03;5073183;28;19990;-73
2022/02/25 11:59:24;;;;;;;;;;;;;;;7.93;100.00;99896.56;5054933;28;20032;-73
2022/02/25 12:02:35;;;;;;;;;;;;;;;7.74;100.00;99893.22;5054375;28;20406;-74
2022/02/25 12:09:54;;;;;;;;;;;;;;;7.87;100.00;99903.66;4991980;28;19922;-74
2022/02/25 12:12:24;;;;;;;;;;;;;;;8.03;100.00;99906.16;4978905;28;20400;-74
2022/02/25 12:14:57;;;;;;;;;;;;;;;8.28;100.00;99910.78;4972253;28;19977;-73
2022/02/25 12:17:37;;;;;;;;;;;;;;;8.49;100.00;99921.22;4956035;28;19926;-73
2022/02/25 12:20:27;;;;;;;;;;;;;;;8.41;100.00;99923.16;4955356;28;19926;-74
2022/02/25 12:23:02;;;;;;;;;;;;;;;8.41;100.00;99911.22;4955855;28;19957;-73
2022/02/25 12:25:44;;;;;;;;;;;;;;;8.93;100.00;99928.22;4972150;28;19933;-73
2022/02/25 12:28:14;;;;;;;;;;;;;;;8.99;100.00;99932.25;4971942;28;19926;-73
2022/02/25 12:30:42;;;;;;;;;;;;;;;9.32;100.00;99938.69;4977136;28;19930;-73
2022/02/25 12:37:43;;;;;;;;;;;;;;;8.47;100.00;99941.13;4894173;29;20444;-74
2022/02/25 12:40:10;;;;;;;;;;;;;;;8.85;100.00;99940.53;4924759;29;20026;-73
2022/02/25 12:42:38;;;;;;;;;;;;;;;8.54;100.00;99957.06;4940619;28;20446;-74
2022/02/25 12:45:05;;;;;;;;;;;;;;;9.23;100.00;99946.63;4990938;28;19965;-74
2022/02/25 12:47:33;;;;;;;;;;;;;;;8.58;100.00;99961.47;5001154;28;19925;-73
2022/02/25 12:50:03;;;;;;;;;;;;;;;8.99;100.00;99960.13;5006231;28;19926;-74
2022/02/25 12:52:41;;;;;;;;;;;;;;;8.79;100.00;99967.19;5029283;28;19926;-75
2022/02/25 12:55:55;;;;;;;;;;;;;;;8.67;100.00;99964.72;5025988;28;19925;-74
2022/02/25 12:58:36;;;;;;;;;;;;;;;8.49;100.00;99958.25;5029194;28;19926;-74
2022/02/25 13:01:07;;;;;;;;;;;;;;;8.85;100.00;99948.09;4995424;28;20011;-73
2022/02/25 13:03:33;;;;;;;;;;;;;;;9.00;100.00;99967.28;5011540;28;19932;-74
2022/02/25 13:06:01;;;;;;;;;;;;;;;9.19;100.00;99955.78;5030013;28;20290;-73
2022/02/25 13:08:31;;;;;;;;;;;;;;;9.03;100.00;99957.31;5010757;28;19929;-73
2022/02/25 13:10:59;;;;;;;;;;;;;;;8.56;100.00;99963.84;5014219;28;20007;-73
2022/02/25 13:13:26;;;;;;;;;;;;;;;8.79;100.00;99967.19;4999830;28;20385;-73
2022/02/25 13:16:21;;;;;;;;;;;;;;;8.87;100.00;99973.59;5050343;28;19932;-73
2022/02/25 13:18:50;;;;;;;;;;;;;;;8.98;100.00;99972.44;5039741;28;19968;-73
2022/02/25 13:21:18;;;;;;;;;;;;;;;9.19;100.00;99972.53;5035950;28;19929;-73
2022/02/25 13:23:50;;;;;;;;;;;;;;;9.66;100.00;99984.63;5051299;28;20044;-72
2022/02/25 13:26:23;;;;;;;;;;;;;;;10.14;100.00;99981.13;5037813;28;20085;-72
2022/02/25 13:28:50;;;;;;;;;;;;;;;10.00;100.00;99971.91;5055925;28;19939;-72